Airfield :
LOGIN :

Register | Disclaimer

   EN    FR    IT 

 










Legend :    VFR   Marginal VFR   IFR   Intensive IFR   Very Intensive IFR
Visi :
Ceiling :
>= 8 km
>= 3000ft
5 to 8 km
1000 to 3000 ft
1500m to 5 km
500 to 1000 ft
800 to 1500m
200 to 500 ft
< 800m
< 200 ft
Symbols :   Thunderstorms  Fog  Heavy snow  Heavy precipitations  Wind > 20 kt
SIGMETs :     Misc.  Thunderstorms  Icing  Turbulence  Mountain Waves  Volcanic Ashes







- Airport Elevation : 1906 ft
- IATA code : INN


LOWI - Innsbruck

CURRENT METAR :
  • 160820Z VRB02KT 9999 FEW007 SCT065 BKN090 M01/M03 Q1007 R08/19//95 NOSIG

EXPIRED METARs :
  • 160750Z VRB02KT 9999 FEW007 BKN092 M01/M03 Q1007 R08/19//95 NOSIG
  • 160720Z 25003KT 200V270 9999 FEW007 BKN090 M01/M03 Q1006 R08/19//95 NOSIG
  • 160650Z VRB01KT 9999 FEW010 BKN085 M01/M03 Q1006 R08/19//95 NOSIG
  • 160620Z VRB01KT 9999 FEW010 BKN087 M01/M03 Q1005 R08/19//95 NOSIG
  • 160550Z VRB02KT 9999 FEW010 BKN085 M01/M03 Q1005 R08/19//95 TEMPO FM0700 BKN010

TAF TAF LOWI
Valid from the 16 at 06:00 until the 17 at 06:00 UTC


160515Z 1606/1706 27004KT 9999 FEW010 BKN080 TX01/1612Z TNM02/1607Z
PROB40
TEMPO 1606/1609 BKN009
BECMG 1613/1615 8000 -SN SCT030 BKN060
TEMPO 1615/1624 1500 SN VV008
TEMPO 1700/1706 3000 -SN BR VV010
No reported NOTAMs for that airfield.



MET'MAP, your aeronautical weather chart ! - Copyright ORBIFLY December 2007 - Disclaimer

ORBIFLY MET'MAP TEAM :

Programming & Development : Alexandra Zaïnal
Concept & Development : Baudouin d'Aumeries
Co-Development & Prog : Marc-Olivier Méhu
Technical & hardware support : Manuel Goepfert

Contact : metmap@orbifly.com




SOURCES & CREDITS :

   NOAA